KELD/ELD METAR and TAF weather

Enter ICAO airport designator
Station Type Date Time Source
KELD METAR 2019/08/25 01:53 UTC NOAA

KELD 250153Z AUTO 12007KT 10SM BKN100 BKN110 26/25 A2995 RMK AO2 SLP139 T02610250 $


Station Type Date Time Source
KELD Decoded METAR 2019/08/25 01:53 UTC NOAA

Station name not available
Aug 24, 2019 - 09:53 PM EDT / 2019.08.25 0153 UTC
Wind: from the ESE (120 degrees) at 8 MPH (7 KT):0
Visibility: 10 mile(s):0
Sky conditions: mostly cloudy
Temperature: 79.0 F (26.1 C)
Dew Point: 77.0 F (25.0 C)
Relative Humidity: 93%
Pressure (altimeter): 29.95 in. Hg (1014 hPa)
ob: KELD 250153Z AUTO 12007KT 10SM BKN100 BKN110 26/25 A2995 RMK AO2 SLP139 T02610250
cycle: 2

Station Type Date Time Source
KELD TAF 2019/08/24 18:22 UTC NOAA

TAF KELD 241720Z 2418/2518 16005KT P6SM BKN025 BKN250
FM242000 15008KT P6SM VCTS BKN045CB
FM250000 14004KT P6SM SCT100 BKN250
FM250900 13002KT 6SM BR OVC050
FM251100 00000KT 4SM BR OVC025
FM251400 15004KT P6SM OVC015

Example: see airport list